Time;durP1;ratioP1;P1;durP2;ratioP2;P2;SDS_P1;SDS_P2;PMS_P1;PMS_P2;Temp;Humidity;BMP_temperature;BMP_pressure;BME280_temperature;BME280_humidity;BME280_pressure;Samples;Min_cycle;Max_cycle;Signal;HPM_P1;HPM_P2
2022/05/13 00:08:20;;;;;;;5.30;1.57;;;20.30;61.30;;;;;;20994947;28;20234;-69
2022/05/13 00:18:21;;;;;;;4.87;1.60;;;20.20;61.10;;;;;;20994468;28;20234;-69
2022/05/13 00:28:23;;;;;;;2.77;1.70;;;20.20;61.00;;;;;;20993120;28;20284;-62
2022/05/13 00:38:26;;;;;;;6.23;1.90;;;20.10;61.20;;;;;;20994557;28;20666;-61
2022/05/13 00:48:27;;;;;;;4.70;1.70;;;19.90;61.50;;;;;;20994303;28;20603;-68
2022/05/13 00:58:31;;;;;;;4.30;1.67;;;19.80;62.00;;;;;;20993629;28;20541;-63
2022/05/13 01:08:36;;;;;;;3.10;1.53;;;19.60;61.60;;;;;;20992838;28;20292;-64
2022/05/13 01:18:40;;;;;;;5.83;2.00;;;19.60;62.40;;;;;;20992657;28;20234;-64
2022/05/13 01:28:52;;;;;;;4.27;1.87;;;19.50;62.50;;;;;;21004951;28;20750;-70
2022/05/13 01:38:55;;;;;;;6.50;2.17;;;19.50;62.70;;;;;;21022561;28;20714;-64
2022/05/13 01:48:57;;;;;;;3.53;2.10;;;19.40;62.70;;;;;;21021909;28;20229;-69
2022/05/13 01:58:58;;;;;;;3.73;2.10;;;19.20;62.90;;;;;;21005289;28;20208;-71
2022/05/13 02:09:00;;;;;;;3.43;1.97;;;19.00;63.90;;;;;;21004403;28;20234;-65
2022/05/13 02:19:02;;;;;;;3.47;2.00;;;18.70;64.80;;;;;;21003139;28;20243;-65
2022/05/13 02:29:03;;;;;;;3.40;2.10;;;18.50;65.50;;;;;;21001115;28;20237;-68
2022/05/13 02:39:05;;;;;;;7.80;2.07;;;18.40;65.90;;;;;;20984272;28;20268;-64
2022/05/13 02:49:07;;;;;;;3.47;2.10;;;18.30;66.30;;;;;;21001517;28;20232;-62
2022/05/13 02:59:10;;;;;;;4.30;2.20;;;18.10;66.60;;;;;;21000700;28;20207;-62
2022/05/13 03:09:11;;;;;;;6.93;2.60;;;18.10;67.10;;;;;;21012396;28;20253;-62
2022/05/13 03:19:13;;;;;;;6.60;2.13;;;17.90;67.40;;;;;;21012253;28;20713;-70
2022/05/13 03:29:15;;;;;;;4.13;2.00;;;17.90;67.60;;;;;;20998422;28;20301;-69
2022/05/13 03:39:17;;;;;;;12.57;2.70;;;17.80;67.90;;;;;;20997646;28;20212;-69
2022/05/13 03:49:19;;;;;;;5.13;2.27;;;17.60;68.30;;;;;;20995786;28;20241;-67
2022/05/13 03:59:21;;;;;;;5.67;2.90;;;17.50;68.90;;;;;;20996543;28;20206;-68
2022/05/13 04:09:22;;;;;;;6.40;2.47;;;17.40;69.60;;;;;;20995725;28;20330;-71
2022/05/13 04:19:25;;;;;;;7.30;2.70;;;17.30;70.30;;;;;;20996895;28;20765;-63
2022/05/13 04:29:26;;;;;;;6.97;2.90;;;17.30;70.70;;;;;;21013216;28;20237;-63
2022/05/13 04:39:29;;;;;;;7.60;2.70;;;17.30;71.30;;;;;;20995054;28;20231;-67
2022/05/13 04:49:31;;;;;;;7.93;2.70;;;17.30;71.40;;;;;;20993930;28;20235;-71
2022/05/13 04:59:32;;;;;;;12.87;3.20;;;17.30;71.60;;;;;;21002824;28;20218;-63
2022/05/13 05:09:35;;;;;;;11.63;3.60;;;17.30;71.90;;;;;;21007638;28;20755;-64
2022/05/13 05:19:36;;;;;;;19.30;4.43;;;17.40;72.10;;;;;;21007630;28;20307;-62
2022/05/13 05:29:38;;;;;;;27.40;6.27;;;17.60;72.10;;;;;;21007689;28;20242;-63
2022/05/13 05:39:40;;;;;;;11.53;5.27;;;17.70;72.20;;;;;;21006103;28;20270;-63
2022/05/13 05:49:42;;;;;;;8.00;4.20;;;17.90;72.10;;;;;;21004930;28;20637;-63
2022/05/13 05:59:45;;;;;;;11.87;4.60;;;18.00;72.10;;;;;;21004679;28;20328;-64
2022/05/13 06:09:47;;;;;;;12.17;4.50;;;18.30;71.60;;;;;;21002585;28;20241;-66
2022/05/13 06:19:49;;;;;;;21.03;3.87;;;18.50;71.20;;;;;;21001353;28;20229;-66
2022/05/13 06:29:52;;;;;;;9.83;3.17;;;18.70;70.40;;;;;;21000133;28;20240;-63
2022/05/13 06:39:54;;;;;;;7.40;3.00;;;18.90;69.20;;;;;;21016157;28;20212;-64
2022/05/13 06:49:55;;;;;;;19.47;3.13;;;19.20;68.30;;;;;;20999437;28;20299;-63
2022/05/13 06:59:58;;;;;;;10.70;3.20;;;19.50;66.70;;;;;;20981956;28;20240;-66
2022/05/13 07:10:00;;;;;;;7.07;2.87;;;19.70;65.50;;;;;;20999731;28;20246;-64
2022/05/13 07:20:01;;;;;;;9.83;3.70;;;19.70;63.80;;;;;;21001130;28;20632;-63
2022/05/13 07:30:04;;;;;;;6.27;2.57;;;19.90;63.00;;;;;;20997050;28;20245;-66
2022/05/13 07:50:29;;;;;;;7.13;3.53;;;20.20;60.80;;;;;;20995854;28;20230;-79
2022/05/13 08:00:36;;;;;;;7.23;2.50;;;20.30;60.00;;;;;;20994881;28;20261;-63
2022/05/13 08:10:40;;;;;;;8.57;2.23;;;20.60;59.70;;;;;;20993343;28;20303;-63
2022/05/13 08:20:43;;;;;;;9.37;2.00;;;20.80;58.50;;;;;;21028629;28;20242;-64
2022/05/13 08:30:45;;;;;;;6.13;2.33;;;20.60;58.00;;;;;;21000832;28;20240;-63
2022/05/13 08:40:50;;;;;;;5.20;2.10;;;20.10;56.80;;;;;;21021008;28;20237;-65
2022/05/13 08:51:06;;;;;;;6.30;2.27;;;20.50;55.90;;;;;;21020339;28;20234;-64
2022/05/13 09:01:12;;;;;;;12.57;2.10;;;20.50;55.40;;;;;;21020419;28;20687;-62
2022/05/13 09:12:01;;;;;;;8.00;2.13;;;20.50;55.60;;;;;;21020237;28;20296;-64
2022/05/13 09:22:13;;;;;;;6.23;2.33;;;20.80;54.90;;;;;;20891255;28;20258;-59
2022/05/13 09:32:27;;;;;;;10.70;2.43;;;20.40;55.60;;;;;;20918970;28;20206;-62
2022/05/13 09:42:36;;;;;;;18.67;6.67;;;20.70;55.40;;;;;;20937598;28;20597;-60
2022/05/13 09:52:38;;;;;;;20.73;5.43;;;20.70;55.50;;;;;;20923456;28;20238;-58
2022/05/13 10:02:43;;;;;;;5.90;2.10;;;20.80;54.90;;;;;;20921369;28;20238;-63
2022/05/13 10:23:17;;;;;;;9.17;2.13;;;21.00;52.60;;;;;;20993882;28;20246;-60
2022/05/13 10:33:34;;;;;;;6.33;1.90;;;21.00;51.80;;;;;;21000551;28;20207;-61
2022/05/13 10:43:46;;;;;;;7.33;3.80;;;21.10;51.50;;;;;;21001462;28;20309;-60
2022/05/13 10:54:10;;;;;;;5.03;1.87;;;21.00;49.70;;;;;;20999653;28;20570;-65
2022/05/13 11:04:38;;;;;;;4.80;2.43;;;21.20;50.00;;;;;;20998895;28;20241;-60
2022/05/13 11:14:49;;;;;;;7.83;1.80;;;21.30;49.80;;;;;;20997475;28;20250;-60
2022/05/13 11:35:39;;;;;;;11.63;1.80;;;21.40;50.00;;;;;;21072351;28;20631;-60
2022/05/13 11:46:09;;;;;;;4.73;1.50;;;21.50;49.00;;;;;;21077885;28;20275;-69
2022/05/13 11:56:26;;;;;;;3.97;1.10;;;21.50;47.90;;;;;;21077889;28;20218;-64
2022/05/13 12:06:50;;;;;;;3.33;1.30;;;21.70;45.50;;;;;;21077147;28;20234;-60
2022/05/13 12:17:02;;;;;;;2.80;1.37;;;21.70;45.80;;;;;;21089167;28;20263;-63
2022/05/13 12:27:11;;;;;;;10.30;4.23;;;21.80;46.10;;;;;;21088866;28;20233;-59
2022/05/13 12:37:37;;;;;;;8.60;1.87;;;21.40;47.50;;;;;;21074154;28;20229;-60
2022/05/13 12:48:12;;;;;;;11.43;2.77;;;21.40;47.60;;;;;;21073975;28;20237;-60
2022/05/13 12:58:18;;;;;;;3.90;1.60;;;21.70;46.90;;;;;;21076235;28;20202;-60
2022/05/13 13:08:22;;;;;;;5.23;2.23;;;21.80;45.60;;;;;;21075239;28;20301;-61
2022/05/13 13:18:33;;;;;;;8.13;2.40;;;21.90;44.60;;;;;;21078716;28;20233;-64
2022/05/13 13:28:37;;;;;;;5.23;1.67;;;21.90;44.50;;;;;;21120620;28;20261;-62
2022/05/13 13:38:46;;;;;;;9.77;4.10;;;21.90;44.00;;;;;;21092113;28;20218;-61
2022/05/13 13:48:53;;;;;;;6.83;2.70;;;22.00;43.90;;;;;;21094043;28;20772;-59
2022/05/13 13:59:27;;;;;;;3.97;1.23;;;22.00;41.90;;;;;;21089093;28;20540;-60
2022/05/13 14:09:36;;;;;;;5.80;3.87;;;22.20;42.40;;;;;;21087433;28;20240;-59
2022/05/13 14:19:53;;;;;;;3.93;1.77;;;22.50;42.50;;;;;;21085572;28;20234;-60
2022/05/13 14:29:59;;;;;;;4.43;1.43;;;23.10;39.10;;;;;;21068398;28;20700;-59
2022/05/13 14:40:11;;;;;;;5.20;1.70;;;23.50;38.60;;;;;;21087639;28;20297;-63
2022/05/13 14:50:16;;;;;;;5.70;1.50;;;23.50;39.30;;;;;;21085242;28;20709;-62
2022/05/13 15:00:24;;;;;;;5.83;1.30;;;23.90;38.50;;;;;;21084067;28;20293;-60
2022/05/13 15:10:28;;;;;;;3.13;1.50;;;23.00;38.90;;;;;;21082999;28;20227;-65
2022/05/13 15:20:30;;;;;;;6.03;1.43;;;23.70;39.40;;;;;;21081882;28;20597;-72
2022/05/13 15:30:32;;;;;;;8.53;1.60;;;23.30;38.30;;;;;;21081735;28;20234;-71
2022/05/13 15:40:34;;;;;;;2.77;1.10;;;23.10;38.80;;;;;;21079128;28;20340;-73
2022/05/13 16:00:56;;;;;;;3.53;1.63;;;22.70;39.30;;;;;;21079390;28;20662;-72
2022/05/13 16:10:59;;;;;;;6.20;1.20;;;23.00;39.60;;;;;;21078551;28;20241;-68
2022/05/13 16:21:02;;;;;;;3.47;1.50;;;22.70;38.70;;;;;;21078050;28;20245;-73
2022/05/13 16:31:07;;;;;;;2.93;1.30;;;22.70;38.70;;;;;;21078269;28;20325;-73
2022/05/13 16:41:10;;;;;;;1.97;1.20;;;22.80;39.00;;;;;;21077420;28;20530;-71
2022/05/13 16:51:13;;;;;;;5.50;1.30;;;22.30;39.30;;;;;;21078619;28;20241;-74
2022/05/13 17:01:15;;;;;;;5.20;1.40;;;22.30;40.40;;;;;;21076361;28;20661;-63
2022/05/13 17:21:38;;;;;;;6.50;2.63;;;21.90;41.20;;;;;;21091740;28;20250;-73
2022/05/13 17:31:40;;;;;;;5.90;3.10;;;21.70;41.70;;;;;;21091415;28;20252;-69
2022/05/13 17:41:43;;;;;;;7.83;3.57;;;21.40;42.80;;;;;;21090842;28;20700;-65
2022/05/13 17:51:46;;;;;;;10.87;5.87;;;21.20;43.20;;;;;;21089078;28;20245;-63
2022/05/13 18:01:49;;;;;;;3.97;1.80;;;21.10;43.60;;;;;;21088792;28;20210;-66
2022/05/13 18:11:53;;;;;;;2.77;1.40;;;21.20;44.40;;;;;;21086810;28;20265;-64
2022/05/13 18:21:55;;;;;;;6.43;1.60;;;21.10;44.80;;;;;;21084924;28;20240;-62
2022/05/13 18:31:57;;;;;;;3.23;1.60;;;21.00;46.10;;;;;;21087185;28;20241;-69
2022/05/13 18:52:20;;;;;;;4.93;2.00;;;20.40;47.50;;;;;;21084361;28;20209;-67
2022/05/13 19:02:21;;;;;;;4.77;2.50;;;20.10;48.50;;;;;;21081864;28;20289;-64
2022/05/13 19:12:23;;;;;;;2.93;1.90;;;19.90;49.30;;;;;;21081583;28;20209;-62
2022/05/13 19:22:25;;;;;;;4.20;2.70;;;19.70;49.80;;;;;;21079858;28;20254;-62
2022/05/13 19:32:27;;;;;;;6.00;2.40;;;19.60;50.40;;;;;;21061823;28;20209;-64
2022/05/13 19:42:29;;;;;;;4.33;2.30;;;19.30;51.50;;;;;;21083011;28;20276;-70
2022/05/13 19:52:32;;;;;;;5.93;2.57;;;19.10;52.90;;;;;;21078336;28;20212;-66
2022/05/13 20:02:33;;;;;;;7.17;2.60;;;18.80;54.30;;;;;;21077541;28;20230;-64
2022/05/13 20:12:35;;;;;;;7.73;3.27;;;18.40;55.50;;;;;;21077162;28;20220;-68
2022/05/13 20:32:57;;;;;;;4.30;2.43;;;17.80;57.30;;;;;;21075650;28;20221;-68
2022/05/13 20:42:59;;;;;;;8.83;3.10;;;17.60;58.20;;;;;;21075845;28;20243;-67
2022/05/13 20:53:02;;;;;;;10.83;3.40;;;17.40;59.00;;;;;;21075081;28;20199;-67
2022/05/13 21:03:04;;;;;;;5.97;3.37;;;17.20;60.10;;;;;;21074186;28;20237;-71
2022/05/13 21:13:06;;;;;;;7.07;3.10;;;17.10;61.00;;;;;;21056124;28;20644;-69
2022/05/13 21:23:08;;;;;;;6.93;3.47;;;16.90;61.40;;;;;;21054985;28;20238;-68
2022/05/13 21:43:31;;;;;;;5.73;3.40;;;16.70;63.50;;;;;;21067855;28;20242;-67
2022/05/13 21:53:32;;;;;;;5.93;3.13;;;16.40;64.50;;;;;;21089840;28;20202;-67
2022/05/13 22:03:35;;;;;;;8.97;3.43;;;16.30;65.50;;;;;;21097836;28;20327;-67
2022/05/13 22:13:37;;;;;;;7.10;3.47;;;16.10;66.10;;;;;;21112662;28;20237;-68
2022/05/13 22:23:39;;;;;;;9.33;3.73;;;15.90;67.30;;;;;;21088144;28;20252;-64
2022/05/13 22:33:40;;;;;;;5.60;3.30;;;15.80;68.00;;;;;;21087078;28;20213;-65
2022/05/13 22:43:42;;;;;;;4.87;3.27;;;15.70;68.50;;;;;;21086280;28;20239;-68
2022/05/13 22:53:44;;;;;;;7.10;3.53;;;15.60;69.40;;;;;;21084926;28;20199;-68
2022/05/13 23:03:46;;;;;;;6.47;3.60;;;15.40;70.30;;;;;;21084406;28;20290;-68
2022/05/13 23:13:50;;;;;;;4.13;2.90;;;15.20;71.30;;;;;;21084016;28;20209;-65
2022/05/13 23:23:52;;;;;;;7.40;3.63;;;15.10;71.50;;;;;;21082502;28;20604;-70
2022/05/13 23:33:55;;;;;;;7.97;3.70;;;15.00;72.10;;;;;;21082348;28;20282;-69
2022/05/13 23:43:57;;;;;;;8.00;3.23;;;14.80;72.30;;;;;;21081844;28;20238;-68
